Time;durP1;ratioP1;P1;durP2;ratioP2;P2;SDS_P1;SDS_P2;PMS_P1;PMS_P2;Temp;Humidity;BMP_temperature;BMP_pressure;BME280_temperature;BME280_humidity;BME280_pressure;Samples;Min_cycle;Max_cycle;Signal;HPM_P1;HPM_P2
2021/10/11 00:03:35;;;;;;;14.47;13.00;;;9.70;99.90;;;;;;10160300;29;20213;-82
2021/10/11 00:08:37;;;;;;;15.20;13.60;;;9.60;99.90;;;;;;10155251;29;20620;-82
2021/10/11 00:13:39;;;;;;;14.60;13.10;;;9.50;99.90;;;;;;10146951;29;20651;-82
2021/10/11 00:18:43;;;;;;;15.93;13.93;;;9.50;99.90;;;;;;10149103;29;20296;-82
2021/10/11 00:23:45;;;;;;;15.93;14.03;;;9.50;99.90;;;;;;10185674;29;20694;-82
2021/10/11 00:28:47;;;;;;;15.40;13.90;;;9.50;99.90;;;;;;10161206;29;20226;-82
2021/10/11 00:33:51;;;;;;;14.67;12.67;;;9.50;99.90;;;;;;10150836;29;20306;-81
2021/10/11 00:38:53;;;;;;;15.30;13.70;;;9.40;99.90;;;;;;10148802;29;20244;-81
2021/10/11 00:43:55;;;;;;;13.80;12.50;;;9.40;99.90;;;;;;10143900;29;20237;-81
2021/10/11 00:48:59;;;;;;;14.30;12.80;;;9.40;99.90;;;;;;10147010;29;20286;-81
2021/10/11 00:54:01;;;;;;;13.93;12.57;;;9.30;99.90;;;;;;10162288;29;20220;-81
2021/10/11 00:59:03;;;;;;;14.43;13.03;;;9.30;99.90;;;;;;10180431;29;20230;-81
2021/10/11 01:04:07;;;;;;;14.13;12.73;;;9.20;99.90;;;;;;10180993;29;20306;-81
2021/10/11 01:09:11;;;;;;;17.53;13.40;;;9.10;99.90;;;;;;10157565;29;20238;-82
2021/10/11 01:14:13;;;;;;;14.30;13.00;;;9.10;99.90;;;;;;10169256;29;20675;-81
2021/10/11 01:19:17;;;;;;;14.30;13.00;;;9.20;99.90;;;;;;10161434;29;20222;-81
2021/10/11 01:24:20;;;;;;;13.77;12.30;;;9.20;99.90;;;;;;10145205;29;20214;-81
2021/10/11 01:29:22;;;;;;;14.07;12.87;;;9.20;99.90;;;;;;10145745;29;20226;-81
2021/10/11 01:34:24;;;;;;;15.07;13.50;;;9.20;99.90;;;;;;10145168;29;20304;-81
2021/10/11 01:39:28;;;;;;;16.10;14.50;;;9.20;99.90;;;;;;10145612;29;20249;-81
2021/10/11 01:44:30;;;;;;;14.40;13.00;;;9.20;99.90;;;;;;10160639;29;20217;-81
2021/10/11 01:49:32;;;;;;;14.37;12.80;;;9.10;99.90;;;;;;10144737;29;20237;-81
2021/10/11 01:54:36;;;;;;;15.73;14.13;;;9.10;99.90;;;;;;10160097;29;20206;-81
2021/10/11 01:59:38;;;;;;;15.90;14.40;;;9.00;99.90;;;;;;10144612;29;20769;-81
2021/10/11 02:04:40;;;;;;;15.57;13.97;;;9.00;99.90;;;;;;10166315;29;20242;-81
2021/10/11 02:09:43;;;;;;;14.47;13.17;;;9.00;99.90;;;;;;10166971;29;20243;-81
2021/10/11 02:14:47;;;;;;;15.93;14.43;;;9.00;99.90;;;;;;10163107;29;20212;-81
2021/10/11 02:19:49;;;;;;;14.87;13.33;;;8.90;99.90;;;;;;10150992;29;20594;-81
2021/10/11 02:24:53;;;;;;;16.70;15.10;;;8.90;99.90;;;;;;10150912;29;20226;-81
2021/10/11 02:29:55;;;;;;;15.33;13.93;;;8.90;99.90;;;;;;10167778;29;20341;-81
2021/10/11 02:35:01;;;;;;;17.23;15.43;;;8.90;99.90;;;;;;10167667;29;20248;-82
2021/10/11 02:40:06;;;;;;;15.17;13.83;;;8.80;99.90;;;;;;10150589;29;20237;-81
2021/10/11 02:45:09;;;;;;;16.30;14.80;;;8.80;99.90;;;;;;10143616;29;20209;-81
2021/10/11 02:50:11;;;;;;;16.40;14.80;;;8.80;99.90;;;;;;10148071;29;20320;-81
2021/10/11 02:55:15;;;;;;;17.40;15.67;;;8.80;99.90;;;;;;10177130;29;20205;-81
2021/10/11 03:00:17;;;;;;;17.10;15.40;;;8.80;99.90;;;;;;10143542;29;20246;-82
2021/10/11 03:05:19;;;;;;;15.53;14.13;;;8.80;99.90;;;;;;10147982;29;20218;-81
2021/10/11 03:10:23;;;;;;;16.63;15.03;;;8.80;99.90;;;;;;10164147;29;20676;-81
2021/10/11 03:15:25;;;;;;;18.10;16.40;;;8.80;99.90;;;;;;10172946;29;20205;-81
2021/10/11 03:20:27;;;;;;;18.90;15.70;;;8.80;99.90;;;;;;10168781;29;20702;-81
2021/10/11 03:25:31;;;;;;;16.57;15.07;;;8.70;99.90;;;;;;10157833;29;20709;-81
2021/10/11 03:30:33;;;;;;;16.20;14.60;;;8.60;99.90;;;;;;10148821;29;20245;-81
2021/10/11 03:35:35;;;;;;;15.57;14.10;;;8.60;99.90;;;;;;10189579;29;20213;-81
2021/10/11 03:40:39;;;;;;;17.07;15.30;;;8.60;99.90;;;;;;10163111;29;20252;-81
2021/10/11 03:45:41;;;;;;;11.37;10.30;;;8.60;99.90;;;;;;10168086;29;20206;-81
2021/10/11 03:50:45;;;;;;;17.67;15.90;;;8.60;99.90;;;;;;10176214;29;20221;-81
2021/10/11 03:55:49;;;;;;;16.60;15.00;;;8.60;99.90;;;;;;10171203;29;20206;-81
2021/10/11 04:00:51;;;;;;;16.40;14.80;;;8.60;99.90;;;;;;10167507;29;20230;-81
2021/10/11 04:05:53;;;;;;;18.73;17.03;;;8.60;99.90;;;;;;10148031;29;20690;-81
2021/10/11 04:11:00;;;;;;;18.03;16.23;;;8.60;99.90;;;;;;10161419;29;20249;-81
2021/10/11 04:16:02;;;;;;;18.17;15.87;;;8.50;99.90;;;;;;10172852;29;20221;-81
2021/10/11 04:21:05;;;;;;;20.87;16.73;;;8.50;99.90;;;;;;10143341;29;20269;-81
2021/10/11 04:26:08;;;;;;;23.87;21.47;;;8.60;99.90;;;;;;10152799;29;20214;-81
2021/10/11 04:31:10;;;;;;;32.23;28.87;;;8.60;99.90;;;;;;10174712;29;20229;-81
2021/10/11 04:36:12;;;;;;;29.00;26.20;;;8.60;99.90;;;;;;10150649;29;20210;-80
2021/10/11 04:41:16;;;;;;;26.60;24.00;;;8.50;99.90;;;;;;10153892;29;20325;-82
2021/10/11 04:46:18;;;;;;;21.97;19.87;;;8.50;99.90;;;;;;10153457;29;20205;-80
2021/10/11 04:51:20;;;;;;;20.63;18.70;;;8.60;99.90;;;;;;10169346;29;20226;-81
2021/10/11 04:56:23;;;;;;;19.63;17.83;;;8.60;99.90;;;;;;10173510;29;20214;-83
2021/10/11 05:01:25;;;;;;;20.67;18.67;;;8.60;99.90;;;;;;10179032;29;20262;-82
2021/10/11 05:06:27;;;;;;;18.77;17.03;;;8.50;99.90;;;;;;10179963;29;20578;-82
2021/10/11 05:11:31;;;;;;;19.63;17.63;;;8.50;99.90;;;;;;10140343;29;20238;-82
2021/10/11 05:16:35;;;;;;;20.90;18.80;;;8.50;99.90;;;;;;10145423;29;20214;-83
2021/10/11 05:21:37;;;;;;;19.00;17.20;;;8.40;99.90;;;;;;10163720;29;20226;-81
2021/10/11 05:26:41;;;;;;;21.13;19.23;;;8.40;99.90;;;;;;10136761;29;20198;-81
2021/10/11 05:31:43;;;;;;;20.80;18.70;;;8.40;99.90;;;;;;10135203;29;20222;-81
2021/10/11 05:36:45;;;;;;;21.27;18.97;;;8.40;99.90;;;;;;10146734;29;20198;-83
2021/10/11 05:41:49;;;;;;;20.03;17.90;;;8.50;99.90;;;;;;10156283;29;20256;-83
2021/10/11 05:46:51;;;;;;;21.80;19.50;;;8.50;99.90;;;;;;10170813;29;20208;-84
2021/10/11 05:51:53;;;;;;;20.57;18.57;;;8.50;99.90;;;;;;10151685;29;20237;-84
2021/10/11 05:56:57;;;;;;;20.20;18.10;;;8.60;99.90;;;;;;10152377;29;20667;-84
2021/10/11 06:01:59;;;;;;;20.03;17.90;;;8.60;99.90;;;;;;10157086;29;20230;-84
2021/10/11 06:07:01;;;;;;;22.17;19.80;;;8.50;99.90;;;;;;10157299;29;20240;-84
2021/10/11 06:12:05;;;;;;;22.27;20.07;;;8.60;99.90;;;;;;10165066;29;20234;-84
2021/10/11 06:17:07;;;;;;;21.93;19.73;;;8.60;99.90;;;;;;10164589;29;20224;-83
2021/10/11 06:22:09;;;;;;;20.43;18.23;;;8.70;99.90;;;;;;10151415;29;20316;-84
2021/10/11 06:27:13;;;;;;;20.43;18.30;;;8.80;99.90;;;;;;10160358;29;20271;-84
2021/10/11 06:32:15;;;;;;;20.43;18.53;;;8.80;99.90;;;;;;10155487;29;20234;-83
2021/10/11 06:37:17;;;;;;;19.60;17.80;;;8.80;99.90;;;;;;10155650;29;20226;-83
2021/10/11 06:42:21;;;;;;;21.83;18.70;;;8.90;99.90;;;;;;10155533;29;20793;-84
2021/10/11 06:47:24;;;;;;;21.83;18.80;;;8.90;99.90;;;;;;10172402;29;20678;-84
2021/10/11 06:52:26;;;;;;;19.73;17.63;;;9.00;99.90;;;;;;10155482;29;20278;-84
2021/10/11 06:57:31;;;;;;;20.43;17.30;;;9.00;99.90;;;;;;10169355;29;20224;-83
2021/10/11 07:02:33;;;;;;;20.33;18.33;;;9.10;99.90;;;;;;10169953;29;20226;-84
2021/10/11 07:07:35;;;;;;;20.97;18.77;;;9.10;99.90;;;;;;10155127;29;20221;-84
2021/10/11 07:12:39;;;;;;;21.10;19.10;;;9.10;99.90;;;;;;10165731;29;20238;-83
2021/10/11 07:17:42;;;;;;;21.87;19.67;;;9.20;99.90;;;;;;10140615;29;20713;-83
2021/10/11 07:22:44;;;;;;;21.37;19.23;;;9.30;99.90;;;;;;10149606;29;20283;-84
2021/10/11 07:27:48;;;;;;;23.93;20.77;;;9.40;99.90;;;;;;10146885;29;20217;-84
2021/10/11 07:32:50;;;;;;;22.67;20.30;;;9.50;99.90;;;;;;10139018;29;20307;-84
2021/10/11 07:37:52;;;;;;;22.07;19.77;;;9.70;99.90;;;;;;10146892;29;20218;-84
2021/10/11 07:42:56;;;;;;;22.73;20.40;;;9.80;99.90;;;;;;10148831;29;20228;-84
2021/10/11 07:47:58;;;;;;;21.23;19.10;;;10.00;99.90;;;;;;10146914;29;20224;-84
2021/10/11 07:53:00;;;;;;;20.93;18.90;;;10.10;99.90;;;;;;10145265;29;20262;-84
2021/10/11 07:58:04;;;;;;;21.57;19.47;;;10.30;99.90;;;;;;10162059;29;20671;-84
2021/10/11 08:03:08;;;;;;;22.30;20.00;;;10.40;99.90;;;;;;10164611;29;20687;-84
2021/10/11 08:08:10;;;;;;;22.53;20.23;;;10.60;99.90;;;;;;10161996;29;20675;-84
2021/10/11 08:13:13;;;;;;;22.37;20.17;;;10.80;99.90;;;;;;10148020;29;20238;-84
2021/10/11 08:18:16;;;;;;;23.00;20.73;;;10.90;99.90;;;;;;10182655;29;20237;-83
2021/10/11 08:23:18;;;;;;;23.03;20.83;;;11.10;99.90;;;;;;10127494;29;20217;-83
2021/10/11 08:28:22;;;;;;;23.10;20.93;;;11.20;99.90;;;;;;10129766;29;20227;-83
2021/10/11 08:33:25;;;;;;;21.87;19.50;;;11.40;99.90;;;;;;10134017;29;20670;-83
2021/10/11 08:38:27;;;;;;;21.80;19.70;;;11.40;99.90;;;;;;10145866;29;20229;-83
2021/10/11 08:43:30;;;;;;;21.83;19.73;;;11.60;99.90;;;;;;10153710;29;20210;-83
2021/10/11 08:48:34;;;;;;;20.90;17.90;;;11.60;99.90;;;;;;10161875;29;20221;-82
2021/10/11 08:53:37;;;;;;;20.13;18.13;;;11.70;99.90;;;;;;10134547;29;20636;-84
2021/10/11 08:58:45;;;;;;;20.10;18.00;;;11.80;99.90;;;;;;10157441;29;20630;-83
2021/10/11 09:03:47;;;;;;;20.37;18.27;;;12.00;99.90;;;;;;10153534;29;20210;-83
2021/10/11 09:08:49;;;;;;;20.93;18.67;;;12.10;99.90;;;;;;10133766;29;20297;-83
2021/10/11 09:14:07;;;;;;;21.77;17.37;;;12.30;99.90;;;;;;10130502;29;20685;-84
2021/10/11 09:19:17;;;;;;;20.10;18.00;;;12.50;99.90;;;;;;10152694;29;20238;-85
2021/10/11 09:24:21;;;;;;;19.57;17.57;;;12.60;99.90;;;;;;10162967;29;20210;-84
2021/10/11 09:29:32;;;;;;;19.07;17.27;;;12.70;99.90;;;;;;10138591;29;20235;-84
2021/10/11 09:34:36;;;;;;;20.37;18.13;;;12.80;99.90;;;;;;10131962;29;20254;-85
2021/10/11 09:39:41;;;;;;;20.93;17.87;;;13.00;99.90;;;;;;10152580;29;20300;-85
2021/10/11 09:44:55;;;;;;;18.90;17.20;;;13.00;99.90;;;;;;10150413;29;20211;-85
2021/10/11 09:50:01;;;;;;;19.80;17.23;;;13.10;99.90;;;;;;10138856;29;20727;-85
2021/10/11 09:55:06;;;;;;;19.93;16.50;;;13.10;99.90;;;;;;10148274;29;20699;-85
2021/10/11 10:00:12;;;;;;;19.93;18.00;;;13.10;99.90;;;;;;10165906;29;20245;-85
2021/10/11 10:05:17;;;;;;;25.00;18.77;;;13.10;99.90;;;;;;10170821;29;20305;-85
2021/10/11 10:10:21;;;;;;;23.43;18.50;;;13.00;99.90;;;;;;10149636;29;20243;-85
2021/10/11 10:15:29;;;;;;;20.50;18.30;;;13.00;99.90;;;;;;10180568;29;20193;-85
2021/10/11 10:20:32;;;;;;;19.97;17.70;;;13.00;99.90;;;;;;10152052;29;20238;-85
2021/10/11 10:25:46;;;;;;;19.03;17.23;;;13.10;99.90;;;;;;10160718;29;20235;-85
2021/10/11 10:31:02;;;;;;;21.50;19.27;;;13.10;99.90;;;;;;10152517;29;20627;-85
2021/10/11 10:36:05;;;;;;;20.33;18.33;;;13.10;99.90;;;;;;10147006;29;20236;-85
2021/10/11 10:41:08;;;;;;;20.67;18.67;;;13.10;99.90;;;;;;10206632;23;20264;-84
2021/10/11 10:46:18;;;;;;;21.37;19.33;;;13.20;99.90;;;;;;10202751;29;20257;-83
2021/10/11 10:51:22;;;;;;;24.27;19.73;;;13.20;99.90;;;;;;10183393;29;20601;-84
2021/10/11 10:56:25;;;;;;;28.63;19.87;;;13.30;99.90;;;;;;10202509;29;20213;-84
2021/10/11 11:01:29;;;;;;;22.43;19.97;;;13.30;99.90;;;;;;10202425;29;20264;-83
2021/10/11 11:06:32;;;;;;;20.50;18.50;;;13.40;99.90;;;;;;10185409;29;20657;-83
2021/10/11 11:11:34;;;;;;;21.87;19.70;;;13.50;99.90;;;;;;10179732;29;20225;-83
2021/10/11 11:16:38;;;;;;;21.40;19.30;;;13.60;99.90;;;;;;10219777;29;20244;-83
2021/10/11 11:21:40;;;;;;;20.77;18.83;;;13.60;99.90;;;;;;10186663;29;20701;-83
2021/10/11 11:26:46;;;;;;;20.63;18.60;;;13.70;99.90;;;;;;10186328;29;20217;-83
2021/10/11 11:31:52;;;;;;;22.43;20.23;;;13.80;99.90;;;;;;10201600;29;20233;-83
2021/10/11 11:36:55;;;;;;;22.57;19.70;;;13.80;99.90;;;;;;10198697;29;20292;-83
2021/10/11 11:41:58;;;;;;;22.53;19.00;;;13.80;99.90;;;;;;10181110;29;20241;-83
2021/10/11 11:47:03;;;;;;;18.53;16.77;;;13.80;99.90;;;;;;10179358;29;20224;-83
2021/10/11 11:52:07;;;;;;;17.93;15.90;;;13.80;99.90;;;;;;10196793;29;20227;-83
2021/10/11 11:57:09;;;;;;;19.43;15.33;;;13.80;99.90;;;;;;10190292;29;20209;-83
2021/10/11 12:02:14;;;;;;;20.47;18.07;;;13.90;99.90;;;;;;10196337;29;20723;-83
2021/10/11 12:07:21;;;;;;;21.20;19.10;;;13.90;99.90;;;;;;10196653;29;20268;-83
2021/10/11 12:12:33;;;;;;;20.23;18.13;;;14.00;99.90;;;;;;10190180;29;20244;-83
2021/10/11 12:17:37;;;;;;;18.87;16.97;;;14.00;99.90;;;;;;10191513;29;20213;-83
2021/10/11 12:22:39;;;;;;;19.77;17.87;;;14.10;99.90;;;;;;10195957;29;20245;-82
2021/10/11 12:27:42;;;;;;;22.70;18.70;;;14.10;99.90;;;;;;10191164;29;20578;-82
2021/10/11 12:32:45;;;;;;;20.80;18.70;;;14.10;99.90;;;;;;10197702;29;20333;-82
2021/10/11 12:37:47;;;;;;;20.00;17.83;;;14.10;99.90;;;;;;10182479;29;20241;-83
2021/10/11 12:42:49;;;;;;;14.67;13.27;;;14.20;99.90;;;;;;10190638;29;20261;-83
2021/10/11 12:48:03;;;;;;;19.20;17.27;;;14.30;99.90;;;;;;10179923;29;20300;-83
2021/10/11 12:53:08;;;;;;;17.77;15.97;;;14.40;99.90;;;;;;10197014;29;20229;-83
2021/10/11 12:58:10;;;;;;;18.43;16.63;;;14.50;99.90;;;;;;10181121;29;20213;-83
2021/10/11 13:03:14;;;;;;;21.10;18.93;;;14.70;99.90;;;;;;10198155;29;20589;-83
2021/10/11 13:08:16;;;;;;;22.27;19.60;;;14.80;99.90;;;;;;10183247;29;20241;-83
2021/10/11 13:13:20;;;;;;;22.23;18.93;;;14.80;99.90;;;;;;10192974;29;20267;-83
2021/10/11 13:18:23;;;;;;;18.60;16.90;;;14.80;99.90;;;;;;10194381;29;20209;-83
2021/10/11 13:23:25;;;;;;;21.47;18.73;;;14.80;99.90;;;;;;10179693;29;20696;-81
2021/10/11 13:28:28;;;;;;;22.93;20.53;;;14.90;99.90;;;;;;10176965;29;20690;-82
2021/10/11 14:32:48;;;;;;;32.40;29.10;;;14.80;99.90;;;;;;10144092;29;20229;-83
2021/10/11 15:58:23;;;;;;;40.27;35.97;;;14.10;99.90;;;;;;10183910;29;20669;-82
2021/10/11 16:03:43;;;;;;;41.87;36.03;;;14.00;99.90;;;;;;10178607;29;20276;-83
2021/10/11 16:08:46;;;;;;;39.57;35.37;;;14.00;99.90;;;;;;10163038;29;20229;-83
2021/10/11 16:13:50;;;;;;;41.47;36.77;;;14.00;99.90;;;;;;10164954;29;20228;-83
2021/10/11 16:18:52;;;;;;;39.33;34.60;;;14.00;99.90;;;;;;10160066;29;20289;-84
2021/10/11 16:23:54;;;;;;;38.97;34.80;;;14.00;99.90;;;;;;10165492;29;20212;-83
2021/10/11 16:28:57;;;;;;;43.23;37.13;;;14.00;99.90;;;;;;10181926;29;20717;-84
2021/10/11 16:33:59;;;;;;;39.90;34.43;;;14.00;99.90;;;;;;10159293;29;20593;-84
2021/10/11 16:39:02;;;;;;;37.60;33.10;;;14.00;99.90;;;;;;10181133;29;20237;-83
2021/10/11 16:44:06;;;;;;;36.33;32.50;;;14.00;99.90;;;;;;10177965;29;20208;-84
2021/10/11 16:49:08;;;;;;;36.37;30.60;;;14.00;99.90;;;;;;10200114;29;20708;-83
2021/10/11 16:54:14;;;;;;;35.70;31.03;;;13.90;99.90;;;;;;10199832;29;20244;-83
2021/10/11 16:59:18;;;;;;;31.70;28.53;;;14.00;99.90;;;;;;10147556;29;20292;-83
2021/10/11 17:04:20;;;;;;;33.03;29.63;;;14.00;99.90;;;;;;10172131;29;20215;-83
2021/10/11 17:09:23;;;;;;;30.17;27.07;;;14.00;99.90;;;;;;10201100;29;20248;-84
2021/10/11 17:14:27;;;;;;;27.60;24.77;;;14.00;99.90;;;;;;10159142;29;20226;-83
2021/10/11 17:19:29;;;;;;;27.97;24.97;;;13.90;99.90;;;;;;10162382;29;20229;-83
2021/10/11 17:24:32;;;;;;;25.07;22.47;;;13.90;99.90;;;;;;10183808;29;20205;-83
2021/10/11 17:29:35;;;;;;;23.40;20.47;;;13.90;99.90;;;;;;10193320;29;20225;-83
2021/10/11 17:34:37;;;;;;;25.83;23.10;;;13.90;99.90;;;;;;10182357;29;20237;-83
2021/10/11 17:39:39;;;;;;;23.30;20.83;;;13.90;99.90;;;;;;10184760;29;20237;-83
2021/10/11 17:44:43;;;;;;;27.37;24.57;;;13.90;99.90;;;;;;10174980;29;20294;-83
2021/10/11 17:49:46;;;;;;;24.33;22.00;;;13.90;99.90;;;;;;10199150;29;20232;-83
2021/10/11 17:54:48;;;;;;;25.70;22.90;;;13.90;99.90;;;;;;10191301;29;20225;-84
2021/10/11 17:59:51;;;;;;;22.40;20.10;;;13.90;99.90;;;;;;10211458;29;20243;-83
2021/10/11 18:04:54;;;;;;;26.83;22.20;;;13.90;99.90;;;;;;10185252;29;20627;-83
2021/10/11 18:09:58;;;;;;;21.60;19.40;;;13.90;99.90;;;;;;10191086;29;20229;-83
2021/10/11 18:15:01;;;;;;;21.33;19.33;;;13.90;99.90;;;;;;10174755;29;20225;-84
2021/10/11 18:20:05;;;;;;;21.90;19.70;;;13.80;99.90;;;;;;10170156;29;20225;-84
2021/10/11 18:25:07;;;;;;;21.10;18.90;;;13.80;99.90;;;;;;10209905;29;20224;-83
2021/10/11 18:30:11;;;;;;;20.63;18.17;;;13.80;99.90;;;;;;10200007;29;20714;-84
2021/10/11 18:35:13;;;;;;;20.90;18.77;;;13.80;99.90;;;;;;10181365;29;20236;-83
2021/10/11 18:40:16;;;;;;;21.10;18.47;;;13.80;99.90;;;;;;10182990;29;20233;-83
2021/10/11 18:45:19;;;;;;;21.67;19.47;;;13.80;99.90;;;;;;10166554;29;20745;-84
2021/10/11 18:50:22;;;;;;;21.27;18.77;;;13.80;99.90;;;;;;10185281;29;20245;-84
2021/10/11 18:55:24;;;;;;;19.40;17.23;;;13.70;99.90;;;;;;10189194;29;20353;-83
2021/10/11 19:00:28;;;;;;;18.43;16.60;;;13.70;99.90;;;;;;10174211;29;20340;-84
2021/10/11 19:05:30;;;;;;;19.60;17.03;;;13.70;99.90;;;;;;10188309;29;20217;-83
2021/10/11 19:10:32;;;;;;;20.70;18.57;;;13.70;99.90;;;;;;10165551;29;20225;-83
2021/10/11 19:15:36;;;;;;;19.37;17.37;;;13.70;99.90;;;;;;10192434;29;20244;-84
2021/10/11 19:20:39;;;;;;;20.50;18.40;;;13.70;99.90;;;;;;10170904;29;20311;-83
2021/10/11 19:25:43;;;;;;;19.73;17.73;;;13.70;99.90;;;;;;10206992;29;20229;-83
2021/10/11 19:30:48;;;;;;;18.30;16.60;;;13.70;99.90;;;;;;10172966;29;20316;-83
2021/10/11 19:35:50;;;;;;;20.47;18.37;;;13.70;99.90;;;;;;10176974;29;20240;-83
2021/10/11 19:40:52;;;;;;;18.10;16.37;;;13.70;99.90;;;;;;10176154;29;20247;-83
2021/10/11 19:45:56;;;;;;;19.47;17.57;;;13.60;99.90;;;;;;10176541;29;20304;-83
2021/10/11 19:50:58;;;;;;;17.07;15.27;;;13.50;99.90;;;;;;10191916;29;20308;-83
2021/10/11 19:56:00;;;;;;;18.10;16.10;;;13.50;99.90;;;;;;10165461;29;20257;-84
2021/10/11 20:01:04;;;;;;;16.47;14.97;;;13.30;99.90;;;;;;10169242;29;20240;-84
2021/10/11 20:06:06;;;;;;;18.07;16.37;;;13.20;99.90;;;;;;10191094;29;20201;-84
2021/10/11 20:11:10;;;;;;;19.43;17.30;;;13.00;99.90;;;;;;10177969;29;20707;-84
2021/10/11 20:16:14;;;;;;;18.20;16.23;;;12.90;99.90;;;;;;10168368;29;20785;-83
2021/10/11 20:21:16;;;;;;;17.40;15.80;;;12.80;99.90;;;;;;10186506;29;20236;-83
2021/10/11 20:26:19;;;;;;;17.03;15.43;;;12.70;99.90;;;;;;10168916;29;20217;-84
2021/10/11 20:31:22;;;;;;;17.90;16.10;;;12.70;99.90;;;;;;10169657;29;20852;-83
2021/10/11 20:36:26;;;;;;;17.10;15.57;;;12.70;99.90;;;;;;10219207;29;20237;-85
2021/10/11 20:41:28;;;;;;;17.03;15.43;;;12.60;99.90;;;;;;10166998;29;20662;-85
2021/10/11 20:46:32;;;;;;;18.77;16.80;;;12.50;99.90;;;;;;10173969;29;20213;-84
2021/10/11 20:51:34;;;;;;;20.03;16.20;;;12.50;99.90;;;;;;10169035;29;20247;-85
2021/10/11 20:56:36;;;;;;;19.60;17.03;;;12.40;99.90;;;;;;10159891;29;20229;-84
2021/10/11 21:01:40;;;;;;;19.67;17.67;;;12.40;99.90;;;;;;10165562;29;20328;-83
2021/10/11 21:06:42;;;;;;;15.60;14.10;;;12.50;99.90;;;;;;10171063;29;20275;-83
2021/10/11 21:11:44;;;;;;;15.30;13.90;;;12.50;99.90;;;;;;10185426;29;20597;-83
2021/10/11 21:16:48;;;;;;;14.07;12.20;;;12.50;99.90;;;;;;10163638;29;20332;-83
2021/10/11 21:21:50;;;;;;;13.90;12.70;;;12.50;99.90;;;;;;10167458;29;20229;-83
2021/10/11 21:26:52;;;;;;;15.10;13.60;;;12.50;99.90;;;;;;10186098;29;20285;-83
2021/10/11 21:31:55;;;;;;;14.90;13.60;;;12.60;99.90;;;;;;10169147;29;20316;-84
2021/10/11 21:36:58;;;;;;;15.77;13.30;;;12.60;99.90;;;;;;10183411;29;20225;-84
2021/10/11 21:42:00;;;;;;;15.33;13.73;;;12.60;99.90;;;;;;10171523;29;20259;-84
2021/10/11 21:47:04;;;;;;;13.60;12.20;;;12.60;99.90;;;;;;10199089;29;20289;-83
2021/10/11 21:52:06;;;;;;;13.00;11.60;;;12.60;99.90;;;;;;10180857;29;20267;-84
2021/10/11 21:57:08;;;;;;;13.30;12.00;;;12.60;99.90;;;;;;10185289;29;20233;-83
2021/10/11 22:02:12;;;;;;;13.60;12.33;;;12.60;99.90;;;;;;10185211;29;20282;-83
2021/10/11 22:07:14;;;;;;;14.23;12.83;;;12.70;99.90;;;;;;10162820;29;20202;-84
2021/10/11 22:12:16;;;;;;;16.93;12.90;;;12.70;99.90;;;;;;10194967;29;20592;-83
2021/10/11 22:17:20;;;;;;;12.83;11.73;;;12.70;99.90;;;;;;10202081;29;20225;-84
2021/10/11 22:22:22;;;;;;;14.03;12.53;;;12.70;99.90;;;;;;10176556;29;20236;-83
2021/10/11 22:27:24;;;;;;;14.73;12.73;;;12.70;99.90;;;;;;10184876;29;20213;-84
2021/10/11 22:32:27;;;;;;;14.30;11.80;;;12.70;99.90;;;;;;10172321;29;20233;-84
2021/10/11 22:37:30;;;;;;;14.27;11.27;;;12.70;99.90;;;;;;10205510;29;20647;-83
2021/10/11 22:42:32;;;;;;;13.40;12.20;;;12.70;99.90;;;;;;10176065;29;20610;-83
2021/10/11 22:47:35;;;;;;;13.57;12.03;;;12.70;99.90;;;;;;10192434;29;20300;-83
2021/10/11 22:52:43;;;;;;;12.13;10.93;;;12.70;99.90;;;;;;10175031;29;20241;-84
2021/10/11 22:57:47;;;;;;;12.97;11.77;;;12.70;99.90;;;;;;10181062;29;20244;-83
2021/10/11 23:02:51;;;;;;;13.50;12.20;;;12.70;99.90;;;;;;10187889;29;20229;-83
2021/10/11 23:07:53;;;;;;;13.57;11.43;;;12.70;99.90;;;;;;10176929;29;20304;-83
2021/10/11 23:12:55;;;;;;;12.90;11.60;;;12.60;99.90;;;;;;10203661;29;20236;-83
2021/10/11 23:18:01;;;;;;;17.50;12.70;;;12.60;99.90;;;;;;10171403;29;20246;-84
2021/10/11 23:23:03;;;;;;;13.90;12.60;;;12.60;99.90;;;;;;10188977;29;20300;-84
2021/10/11 23:28:06;;;;;;;15.40;13.80;;;12.60;99.90;;;;;;10174787;29;20674;-83
2021/10/11 23:33:09;;;;;;;19.90;16.27;;;12.50;99.90;;;;;;10185015;29;20233;-84
2021/10/11 23:38:11;;;;;;;17.27;15.40;;;12.50;99.90;;;;;;10170814;29;20212;-83
2021/10/11 23:43:13;;;;;;;17.93;16.20;;;12.50;99.90;;;;;;10173642;29;20312;-84
2021/10/11 23:48:17;;;;;;;18.03;16.23;;;12.50;99.90;;;;;;10201696;29;20216;-83
2021/10/11 23:53:19;;;;;;;17.23;15.60;;;12.50;99.90;;;;;;10186209;29;20296;-83
2021/10/11 23:58:22;;;;;;;18.40;16.50;;;12.50;99.90;;;;;;10206905;29;20202;-84
